createdAt,value
2019-02-16T00:00:28.489Z,990.34
2019-02-16T00:01:28.404Z,990.31
2019-02-16T00:02:28.318Z,990.31
2019-02-16T00:03:28.234Z,990.31
2019-02-16T00:04:28.149Z,990.30
2019-02-16T00:05:28.066Z,990.28
2019-02-16T00:06:27.978Z,990.30
2019-02-16T00:07:27.903Z,990.31
2019-02-16T00:08:27.821Z,990.27
2019-02-16T00:09:27.730Z,990.22
2019-02-16T00:10:27.637Z,990.20
2019-02-16T00:11:27.557Z,990.21
2019-02-16T00:12:27.472Z,990.17
2019-02-16T00:13:27.388Z,990.17
2019-02-16T00:14:27.303Z,990.18
2019-02-16T00:15:27.219Z,990.20
2019-02-16T00:16:27.134Z,990.15
2019-02-16T00:17:27.052Z,990.17
2019-02-16T00:18:26.968Z,990.19
2019-02-16T00:19:26.875Z,990.19
2019-02-16T00:20:26.795Z,990.19
2019-02-16T00:21:26.713Z,990.22
2019-02-16T00:22:26.626Z,990.19
2019-02-16T00:23:26.542Z,990.19
2019-02-16T00:24:26.457Z,990.20
2019-02-16T00:25:26.371Z,990.23
2019-02-16T00:26:26.281Z,990.20
2019-02-16T00:27:26.202Z,990.20
2019-02-16T00:28:26.127Z,990.23
2019-02-16T00:29:26.045Z,990.23
2019-02-16T00:30:25.955Z,990.24
2019-02-16T00:31:25.861Z,990.20
2019-02-16T00:32:25.777Z,990.20
2019-02-16T00:33:25.692Z,990.16
2019-02-16T00:34:25.609Z,990.19
2019-02-16T00:35:25.522Z,990.15
2019-02-16T00:36:25.440Z,990.17
2019-02-16T00:37:25.355Z,990.13
2019-02-16T00:38:25.273Z,990.13
2019-02-16T00:39:25.189Z,990.13
2019-02-16T00:40:25.103Z,990.11
2019-02-16T00:41:25.029Z,990.09
2019-02-16T00:42:24.932Z,990.10
2019-02-16T00:43:24.846Z,990.08
2019-02-16T00:44:24.759Z,990.08
2019-02-16T00:45:24.677Z,990.06
2019-02-16T00:46:24.591Z,990.13
2019-02-16T00:47:24.511Z,990.12
2019-02-16T00:48:24.421Z,990.11
2019-02-16T00:49:24.345Z,990.10
2019-02-16T00:50:24.251Z,990.11
2019-02-16T00:51:24.169Z,990.12
2019-02-16T00:52:24.093Z,990.11
2019-02-16T00:53:23.995Z,990.12
2019-02-16T00:54:23.913Z,990.14
2019-02-16T00:55:23.829Z,990.12
2019-02-16T00:56:23.754Z,990.12
2019-02-16T00:57:23.658Z,990.08
2019-02-16T00:58:23.579Z,990.11
2019-02-16T00:59:23.492Z,990.11
2019-02-16T01:00:23.403Z,990.13
2019-02-16T01:01:23.314Z,990.14
2019-02-16T01:02:23.237Z,990.14
2019-02-16T01:03:23.151Z,990.11
2019-02-16T01:04:23.064Z,990.12
2019-02-16T01:05:22.978Z,990.13
2019-02-16T01:06:22.893Z,990.09
2019-02-16T01:07:22.810Z,990.04
2019-02-16T01:08:22.722Z,990.10
2019-02-16T01:09:22.638Z,990.10
2019-02-16T01:10:22.558Z,990.08
2019-02-16T01:11:22.473Z,990.07
2019-02-16T01:12:22.384Z,990.09
2019-02-16T01:13:22.302Z,990.05
2019-02-16T01:14:22.215Z,990.03
2019-02-16T01:15:22.135Z,990.03
2019-02-16T01:16:22.039Z,990.02
2019-02-16T01:17:21.956Z,990.00
2019-02-16T01:18:21.877Z,989.97
2019-02-16T01:19:21.793Z,989.99
2019-02-16T01:20:21.715Z,989.97
2019-02-16T01:21:23.050Z,989.95
2019-02-16T01:22:21.536Z,989.94
2019-02-16T01:23:21.451Z,989.96
2019-02-16T01:24:21.366Z,989.93
2019-02-16T01:25:21.280Z,989.95
2019-02-16T01:26:21.197Z,989.95
2019-02-16T01:27:21.111Z,989.93
2019-02-16T01:28:21.024Z,989.98
2019-02-16T01:29:20.940Z,989.96
2019-02-16T01:30:20.858Z,989.92
2019-02-16T01:31:20.773Z,989.91
2019-02-16T01:32:20.687Z,989.94
2019-02-16T01:33:20.602Z,989.92
2019-02-16T01:34:20.516Z,989.86
2019-02-16T01:35:20.435Z,989.87
2019-02-16T01:36:20.344Z,989.83
2019-02-16T01:37:20.262Z,989.85
2019-02-16T01:38:20.174Z,989.81
2019-02-16T01:39:20.099Z,989.82
2019-02-16T01:40:20.003Z,989.84
2019-02-16T01:41:19.920Z,989.83
2019-02-16T01:42:19.836Z,989.79
2019-02-16T01:43:19.750Z,989.78
2019-02-16T01:44:19.667Z,989.76
2019-02-16T01:45:19.579Z,989.75
2019-02-16T01:46:19.496Z,989.72
2019-02-16T01:47:19.417Z,989.76
2019-02-16T01:48:19.324Z,989.73
2019-02-16T01:49:19.239Z,989.74
2019-02-16T01:50:19.156Z,989.75
2019-02-16T01:51:19.069Z,989.68
2019-02-16T01:52:18.984Z,989.71
2019-02-16T01:53:18.902Z,989.68
2019-02-16T01:54:18.821Z,989.68
2019-02-16T01:55:18.731Z,989.68
2019-02-16T01:56:18.645Z,989.68
2019-02-16T01:57:18.563Z,989.67
2019-02-16T01:58:18.478Z,989.66
2019-02-16T01:59:18.391Z,989.67
2019-02-16T02:00:18.319Z,989.67
2019-02-16T02:01:18.219Z,989.67
2019-02-16T02:02:18.134Z,989.67
2019-02-16T02:03:18.049Z,989.68
2019-02-16T02:04:17.968Z,989.69
2019-02-16T02:05:17.879Z,989.73
2019-02-16T02:06:17.792Z,989.70
2019-02-16T02:07:17.702Z,989.72
2019-02-16T02:08:17.621Z,989.69
2019-02-16T02:09:17.536Z,989.65
2019-02-16T02:10:17.452Z,989.69
2019-02-16T02:11:17.368Z,989.65
2019-02-16T02:12:17.283Z,989.65
2019-02-16T02:13:17.203Z,989.63
2019-02-16T02:14:17.112Z,989.61
2019-02-16T02:15:17.028Z,989.59
2019-02-16T02:16:16.942Z,989.59
2019-02-16T02:17:16.855Z,989.60
2019-02-16T02:18:16.774Z,989.57
2019-02-16T02:19:16.685Z,989.58
2019-02-16T02:20:16.600Z,989.57
2019-02-16T02:21:16.511Z,989.55
2019-02-16T02:22:16.431Z,989.58
2019-02-16T02:23:16.349Z,989.55
2019-02-16T02:24:16.261Z,989.56
2019-02-16T02:25:16.172Z,989.57
2019-02-16T02:26:16.092Z,989.61
2019-02-16T02:27:16.008Z,989.59
2019-02-16T02:28:15.919Z,989.59
2019-02-16T02:29:15.830Z,989.60
2019-02-16T02:30:15.747Z,989.59
2019-02-16T02:31:15.667Z,989.59
2019-02-16T02:32:15.577Z,989.53
2019-02-16T02:33:15.494Z,989.60
2019-02-16T02:34:15.406Z,989.57
2019-02-16T02:35:15.322Z,989.55
2019-02-16T02:36:15.238Z,989.56
2019-02-16T02:37:15.153Z,989.58
2019-02-16T02:38:15.066Z,989.55
2019-02-16T02:39:14.982Z,989.57
2019-02-16T02:40:14.895Z,989.58
2019-02-16T02:41:14.809Z,989.57
2019-02-16T02:42:14.725Z,989.56
2019-02-16T02:43:14.641Z,989.57
2019-02-16T02:44:14.552Z,989.52
2019-02-16T02:45:14.466Z,989.55
2019-02-16T02:46:14.391Z,989.51
2019-02-16T02:47:14.299Z,989.52
2019-02-16T02:48:14.213Z,989.51
2019-02-16T02:49:14.129Z,989.46
2019-02-16T02:50:14.045Z,989.48
2019-02-16T02:51:13.956Z,989.43
2019-02-16T02:52:13.871Z,989.42
2019-02-16T02:53:13.782Z,989.44
2019-02-16T02:54:13.702Z,989.41
2019-02-16T02:55:13.616Z,989.44
2019-02-16T02:56:13.537Z,989.42
2019-02-16T02:57:13.446Z,989.42
2019-02-16T02:58:13.358Z,989.44
2019-02-16T02:59:13.278Z,989.46
2019-02-16T03:00:13.192Z,989.48
2019-02-16T03:01:13.104Z,989.48
2019-02-16T03:02:13.020Z,989.49
2019-02-16T03:03:12.930Z,989.49
2019-02-16T03:04:12.854Z,989.53
2019-02-16T03:05:12.768Z,989.51
2019-02-16T03:06:12.680Z,989.52
2019-02-16T03:07:12.592Z,989.53
2019-02-16T03:08:12.506Z,989.53
2019-02-16T03:09:12.438Z,989.55
2019-02-16T03:10:12.335Z,989.57
2019-02-16T03:11:12.249Z,989.53
2019-02-16T03:12:12.169Z,989.54
2019-02-16T03:13:12.079Z,989.55
2019-02-16T03:14:11.997Z,989.52
2019-02-16T03:15:11.916Z,989.55
2019-02-16T03:16:11.823Z,989.57
2019-02-16T03:17:11.746Z,989.57
2019-02-16T03:18:11.658Z,989.58
2019-02-16T03:19:11.565Z,989.60
2019-02-16T03:20:11.482Z,989.61
2019-02-16T03:21:11.403Z,989.57
2019-02-16T03:22:11.319Z,989.59
2019-02-16T03:23:11.239Z,989.56
2019-02-16T03:24:11.143Z,989.58
2019-02-16T03:25:11.052Z,989.62
2019-02-16T03:26:10.973Z,989.62
2019-02-16T03:27:10.929Z,989.62
2019-02-16T03:28:10.808Z,989.62
2019-02-16T03:29:10.716Z,989.63
2019-02-16T03:30:10.630Z,989.61
2019-02-16T03:31:10.693Z,989.62
2019-02-16T03:32:10.457Z,989.59
2019-02-16T03:33:10.374Z,989.62
2019-02-16T03:34:10.299Z,989.61
2019-02-16T03:35:10.203Z,989.57
2019-02-16T03:36:10.114Z,989.59
2019-02-16T03:37:10.031Z,989.61
2019-02-16T03:38:09.946Z,989.60
2019-02-16T03:39:09.869Z,989.56
2019-02-16T03:40:09.775Z,989.57
2019-02-16T03:41:09.688Z,989.60
2019-02-16T03:42:09.605Z,989.60
2019-02-16T03:43:09.521Z,989.57
2019-02-16T03:44:09.434Z,989.62
2019-02-16T03:45:09.349Z,989.61
2019-02-16T03:46:09.262Z,989.61
2019-02-16T03:47:09.176Z,989.62
2019-02-16T03:48:09.090Z,989.61
2019-02-16T03:49:09.004Z,989.60
2019-02-16T03:50:08.923Z,989.61
2019-02-16T03:51:08.839Z,989.62
2019-02-16T03:52:13.833Z,989.65
2019-02-16T03:53:08.667Z,989.62
2019-02-16T03:54:08.573Z,989.62
2019-02-16T03:55:08.493Z,989.63
2019-02-16T03:56:08.409Z,989.64
2019-02-16T03:57:08.330Z,989.67
2019-02-16T03:58:08.242Z,989.67
2019-02-16T03:59:08.148Z,989.72
2019-02-16T04:00:08.063Z,989.72
2019-02-16T04:01:07.986Z,989.69
2019-02-16T04:02:07.898Z,989.68
2019-02-16T04:03:07.810Z,989.71
2019-02-16T04:04:07.725Z,989.73
2019-02-16T04:05:07.638Z,989.71
2019-02-16T04:06:07.554Z,989.68
2019-02-16T04:07:07.468Z,989.67
2019-02-16T04:08:07.383Z,989.71
2019-02-16T04:09:07.288Z,989.68
2019-02-16T04:10:07.216Z,989.70
2019-02-16T04:11:07.133Z,989.75
2019-02-16T04:12:07.040Z,989.72
2019-02-16T04:13:06.964Z,989.72
2019-02-16T04:14:06.868Z,989.74
2019-02-16T04:15:06.826Z,989.72
2019-02-16T04:16:06.697Z,989.69
2019-02-16T04:17:06.606Z,989.72
2019-02-16T04:18:06.521Z,989.69
2019-02-16T04:19:06.439Z,989.68
2019-02-16T04:20:06.375Z,989.69
2019-02-16T04:21:06.265Z,989.69
2019-02-16T04:22:06.185Z,989.69
2019-02-16T04:23:06.102Z,989.68
2019-02-16T04:24:06.037Z,989.69
2019-02-16T04:25:05.928Z,989.68
2019-02-16T04:26:05.839Z,989.67
2019-02-16T04:27:05.751Z,989.65
2019-02-16T04:28:05.699Z,989.66
2019-02-16T04:29:05.583Z,989.65
2019-02-16T04:30:05.497Z,989.62
2019-02-16T04:31:05.450Z,989.61
2019-02-16T04:32:05.329Z,989.66
2019-02-16T04:33:05.248Z,989.68
2019-02-16T04:34:05.165Z,989.65
2019-02-16T04:35:05.072Z,989.67
2019-02-16T04:36:04.986Z,989.66
2019-02-16T04:37:04.900Z,989.63
2019-02-16T04:38:04.815Z,989.68
2019-02-16T04:39:04.741Z,989.67
2019-02-16T04:40:04.643Z,989.65
2019-02-16T04:41:04.558Z,989.68
2019-02-16T04:42:04.471Z,989.66
2019-02-16T04:43:04.384Z,989.60
2019-02-16T04:44:04.305Z,989.61
2019-02-16T04:45:04.216Z,989.62
2019-02-16T04:46:04.132Z,989.69
2019-02-16T04:47:04.044Z,989.69
2019-02-16T04:48:03.959Z,989.68
2019-02-16T04:49:03.866Z,989.70
2019-02-16T04:50:03.808Z,989.67
2019-02-16T04:51:03.705Z,989.69
2019-02-16T04:52:03.614Z,989.69
2019-02-16T04:53:03.531Z,989.69
2019-02-16T04:54:03.449Z,989.70
2019-02-16T04:55:03.360Z,989.67
2019-02-16T04:56:03.269Z,989.65
2019-02-16T04:57:03.208Z,989.65
2019-02-16T04:58:03.113Z,989.64
2019-02-16T04:59:03.022Z,989.60
2019-02-16T05:00:02.928Z,989.61
2019-02-16T05:01:02.839Z,989.60
2019-02-16T05:02:02.756Z,989.60
2019-02-16T05:03:02.671Z,989.57
2019-02-16T05:04:02.585Z,989.57
2019-02-16T05:05:02.496Z,989.54
2019-02-16T05:06:02.415Z,989.54
2019-02-16T05:07:02.336Z,989.53
2019-02-16T05:08:02.239Z,989.59
2019-02-16T05:09:02.157Z,989.54
2019-02-16T05:10:02.074Z,989.54
2019-02-16T05:11:01.985Z,989.53
2019-02-16T05:12:01.903Z,989.54
2019-02-16T05:13:01.815Z,989.50
2019-02-16T05:14:01.731Z,989.47
2019-02-16T05:15:01.642Z,989.48
2019-02-16T05:16:01.555Z,989.52
2019-02-16T05:17:01.473Z,989.51
2019-02-16T05:18:01.383Z,989.50
2019-02-16T05:19:01.306Z,989.51
2019-02-16T05:20:01.215Z,989.48
2019-02-16T05:21:01.130Z,989.53
2019-02-16T05:22:01.041Z,989.52
2019-02-16T05:23:00.965Z,989.52
2019-02-16T05:24:00.867Z,989.54
2019-02-16T05:25:00.791Z,989.53
2019-02-16T05:26:00.701Z,989.51
2019-02-16T05:27:00.614Z,989.51
2019-02-16T05:28:00.526Z,989.52
2019-02-16T05:29:00.438Z,989.51
2019-02-16T05:30:00.357Z,989.50
2019-02-16T05:31:00.270Z,989.50
2019-02-16T05:32:00.182Z,989.50
2019-02-16T05:33:00.098Z,989.49
2019-02-16T05:34:00.010Z,989.51
2019-02-16T05:34:59.927Z,989.51
2019-02-16T05:35:59.833Z,989.51
2019-02-16T05:36:59.750Z,989.51
2019-02-16T05:37:59.665Z,989.51
2019-02-16T05:38:59.583Z,989.47
2019-02-16T05:39:59.494Z,989.49
2019-02-16T05:40:59.408Z,989.48
2019-02-16T05:41:59.327Z,989.48
2019-02-16T05:42:59.246Z,989.44
2019-02-16T05:43:59.151Z,989.48
2019-02-16T05:44:59.062Z,989.44
2019-02-16T05:45:58.979Z,989.48
2019-02-16T05:46:58.894Z,989.53
2019-02-16T05:47:58.808Z,989.50
2019-02-16T05:48:58.720Z,989.51
2019-02-16T05:49:58.633Z,989.53
2019-02-16T05:50:58.550Z,989.50
2019-02-16T05:51:58.468Z,989.52
2019-02-16T05:52:58.386Z,989.48
2019-02-16T05:53:58.285Z,989.50
2019-02-16T05:54:58.210Z,989.50
2019-02-16T05:55:58.121Z,989.49
2019-02-16T05:56:58.034Z,989.47
2019-02-16T05:57:57.948Z,989.49
2019-02-16T05:58:57.870Z,989.49
2019-02-16T05:59:57.771Z,989.46
2019-02-16T06:00:57.690Z,989.43
2019-02-16T06:01:57.603Z,989.45
2019-02-16T06:02:57.521Z,989.39
2019-02-16T06:03:57.437Z,989.42
2019-02-16T06:04:57.346Z,989.41
2019-02-16T06:05:57.268Z,989.40
2019-02-16T06:06:57.174Z,989.40
2019-02-16T06:07:57.083Z,989.38
2019-02-16T06:08:57.001Z,989.38
2019-02-16T06:09:56.919Z,989.39
2019-02-16T06:10:56.830Z,989.38
2019-02-16T06:11:56.743Z,989.37
2019-02-16T06:12:56.654Z,989.36
2019-02-16T06:13:56.574Z,989.35
2019-02-16T06:14:56.482Z,989.35
2019-02-16T06:15:56.399Z,989.34
2019-02-16T06:16:56.313Z,989.33
2019-02-16T06:17:56.228Z,989.34
2019-02-16T06:18:56.136Z,989.32
2019-02-16T06:19:56.062Z,989.31
2019-02-16T06:20:55.969Z,989.34
2019-02-16T06:21:55.884Z,989.31
2019-02-16T06:23:03.814Z,989.36
2019-02-16T06:23:55.713Z,989.36
2019-02-16T06:24:55.627Z,989.39
2019-02-16T06:25:55.541Z,989.36
2019-02-16T06:26:55.450Z,989.34
2019-02-16T06:27:55.364Z,989.36
2019-02-16T06:28:55.283Z,989.34
2019-02-16T06:29:55.201Z,989.37
2019-02-16T06:30:55.110Z,989.34
2019-02-16T06:31:55.021Z,989.38
2019-02-16T06:32:54.935Z,989.39
2019-02-16T06:33:55.311Z,989.40
2019-02-16T06:34:54.763Z,989.37
2019-02-16T06:35:54.682Z,989.41
2019-02-16T06:36:54.591Z,989.43
2019-02-16T06:37:54.515Z,989.38
2019-02-16T06:38:54.420Z,989.39
2019-02-16T06:39:54.333Z,989.37
2019-02-16T06:40:54.248Z,989.36
2019-02-16T06:41:54.162Z,989.37
2019-02-16T06:42:54.074Z,989.33
2019-02-16T06:43:53.993Z,989.33
2019-02-16T06:44:53.907Z,989.34
2019-02-16T06:45:53.818Z,989.35
2019-02-16T06:46:53.730Z,989.36
2019-02-16T06:47:53.644Z,989.38
2019-02-16T06:48:53.560Z,989.40
2019-02-16T06:49:53.475Z,989.44
2019-02-16T06:50:53.386Z,989.41
2019-02-16T06:51:53.301Z,989.43
2019-02-16T06:52:53.213Z,989.40
2019-02-16T06:53:53.128Z,989.40
2019-02-16T06:54:53.049Z,989.40
2019-02-16T06:55:52.954Z,989.41
2019-02-16T06:56:52.868Z,989.41
2019-02-16T06:57:52.781Z,989.41
2019-02-16T06:58:52.695Z,989.41
2019-02-16T06:59:52.604Z,989.40
2019-02-16T07:00:52.524Z,989.43
2019-02-16T07:01:52.440Z,989.43
2019-02-16T07:02:52.353Z,989.39
2019-02-16T07:03:52.270Z,989.39
2019-02-16T07:04:52.181Z,989.43
2019-02-16T07:05:52.107Z,989.41
2019-02-16T07:06:52.007Z,989.42
2019-02-16T07:07:51.929Z,989.42
2019-02-16T07:08:51.833Z,989.40
2019-02-16T07:09:51.754Z,989.42
2019-02-16T07:10:51.667Z,989.40
2019-02-16T07:11:51.576Z,989.41
2019-02-16T07:12:51.491Z,989.42
2019-02-16T07:13:51.406Z,989.37
2019-02-16T07:14:51.329Z,989.41
2019-02-16T07:15:51.232Z,989.39
2019-02-16T07:16:51.147Z,989.38
2019-02-16T07:17:51.053Z,989.38
2019-02-16T07:18:50.975Z,989.38
2019-02-16T07:19:50.889Z,989.37
2019-02-16T07:20:50.803Z,989.38
2019-02-16T07:21:50.717Z,989.35
2019-02-16T07:22:50.627Z,989.38
2019-02-16T07:23:50.543Z,989.35
2019-02-16T07:24:50.458Z,989.38
2019-02-16T07:25:50.376Z,989.32
2019-02-16T07:26:50.288Z,989.34
2019-02-16T07:27:50.208Z,989.36
2019-02-16T07:28:50.116Z,989.33
2019-02-16T07:29:50.031Z,989.34
2019-02-16T07:30:49.947Z,989.34
2019-02-16T07:31:49.860Z,989.34
2019-02-16T07:32:49.777Z,989.34
2019-02-16T07:33:49.686Z,989.32
2019-02-16T07:34:49.601Z,989.31
2019-02-16T07:35:49.512Z,989.31
2019-02-16T07:36:49.431Z,989.34
2019-02-16T07:37:49.347Z,989.34
2019-02-16T07:38:49.256Z,989.38
2019-02-16T07:39:49.171Z,989.37
2019-02-16T07:40:49.083Z,989.37
2019-02-16T07:41:49.002Z,989.41
2019-02-16T07:42:48.922Z,989.44
2019-02-16T07:43:48.831Z,989.44
2019-02-16T07:44:48.741Z,989.44
2019-02-16T07:45:48.659Z,989.43
2019-02-16T07:46:48.608Z,989.46
2019-02-16T07:47:48.491Z,989.49
2019-02-16T07:48:48.399Z,989.49
2019-02-16T07:49:48.318Z,989.51
2019-02-16T07:50:48.237Z,989.52
2019-02-16T07:51:48.152Z,989.53
2019-02-16T07:52:48.061Z,989.50
2019-02-16T07:53:47.972Z,989.52
2019-02-16T07:54:48.158Z,989.52
2019-02-16T07:55:47.806Z,989.53
2019-02-16T07:56:47.720Z,989.51
2019-02-16T07:57:47.638Z,989.52
2019-02-16T07:58:47.551Z,989.52
2019-02-16T07:59:47.465Z,989.55
2019-02-16T08:00:47.379Z,989.57
2019-02-16T08:01:47.299Z,989.57
2019-02-16T08:02:47.214Z,989.58
2019-02-16T08:03:47.132Z,989.58
2019-02-16T08:04:47.040Z,989.57
2019-02-16T08:05:46.966Z,989.53
2019-02-16T08:06:46.879Z,989.56
2019-02-16T08:07:46.791Z,989.55
2019-02-16T08:08:46.708Z,989.54
2019-02-16T08:09:46.623Z,989.54
2019-02-16T08:10:46.538Z,989.56
2019-02-16T08:11:46.458Z,989.57
2019-02-16T08:12:46.374Z,989.53
2019-02-16T08:13:46.286Z,989.54
2019-02-16T08:14:46.220Z,989.58
2019-02-16T08:15:46.120Z,989.62
2019-02-16T08:16:46.038Z,989.55
2019-02-16T08:17:45.951Z,989.59
2019-02-16T08:18:45.874Z,989.61
2019-02-16T08:19:45.788Z,989.63
2019-02-16T08:20:45.710Z,989.61
2019-02-16T08:21:45.621Z,989.67
2019-02-16T08:22:45.537Z,989.68
2019-02-16T08:23:45.461Z,989.68
2019-02-16T08:24:45.367Z,989.70
2019-02-16T08:25:45.285Z,989.65
2019-02-16T08:26:45.221Z,989.65
2019-02-16T08:27:45.124Z,989.65
2019-02-16T08:28:45.035Z,989.65
2019-02-16T08:29:44.961Z,989.69
2019-02-16T08:30:44.877Z,989.64
2019-02-16T08:31:44.785Z,989.67
2019-02-16T08:32:44.714Z,989.64
2019-02-16T08:33:44.631Z,989.67
2019-02-16T08:34:44.544Z,989.65
2019-02-16T08:35:44.459Z,989.68
2019-02-16T08:36:44.379Z,989.66
2019-02-16T08:37:44.294Z,989.65
2019-02-16T08:38:44.211Z,989.67
2019-02-16T08:39:44.129Z,989.64
2019-02-16T08:40:44.047Z,989.69
2019-02-16T08:41:43.964Z,989.67
2019-02-16T08:42:43.882Z,989.67
2019-02-16T08:43:43.798Z,989.66
2019-02-16T08:44:43.715Z,989.64
2019-02-16T08:45:43.640Z,989.71
2019-02-16T08:46:43.551Z,989.69
2019-02-16T08:47:43.476Z,989.71
2019-02-16T08:48:43.393Z,989.68
2019-02-16T08:49:43.309Z,989.68
2019-02-16T08:50:43.225Z,989.70
2019-02-16T08:51:43.141Z,989.69
2019-02-16T08:52:43.063Z,989.69
2019-02-16T08:53:49.631Z,989.72
2019-02-16T08:54:42.898Z,989.68
2019-02-16T08:55:42.817Z,989.62
2019-02-16T08:56:42.731Z,989.63
2019-02-16T08:57:42.681Z,989.61
2019-02-16T08:58:42.576Z,989.57
2019-02-16T08:59:42.494Z,989.58
2019-02-16T09:00:42.411Z,989.59
2019-02-16T09:01:42.326Z,989.59
2019-02-16T09:02:42.251Z,989.58
2019-02-16T09:03:42.168Z,989.57
2019-02-16T09:04:42.080Z,989.60
2019-02-16T09:05:42.036Z,989.60
2019-02-16T09:06:41.919Z,989.63
2019-02-16T09:07:41.841Z,989.63
2019-02-16T09:08:41.773Z,989.59
2019-02-16T09:09:41.679Z,989.57
2019-02-16T09:10:41.600Z,989.58
2019-02-16T09:11:41.521Z,989.59
2019-02-16T09:12:41.437Z,989.62
2019-02-16T09:13:41.354Z,989.64
2019-02-16T09:14:41.276Z,989.61
2019-02-16T09:15:41.192Z,989.60
2019-02-16T09:16:41.113Z,989.55
2019-02-16T09:17:41.033Z,989.64
2019-02-16T09:18:40.951Z,989.63
2019-02-16T09:19:40.872Z,989.62
2019-02-16T09:20:40.793Z,989.65
2019-02-16T09:21:40.711Z,989.64
2019-02-16T09:22:40.632Z,989.66
2019-02-16T09:23:40.547Z,989.69
2019-02-16T09:24:40.474Z,989.69
2019-02-16T09:25:40.396Z,989.68
2019-02-16T09:26:40.335Z,989.68
2019-02-16T09:27:40.441Z,989.68
2019-02-16T09:28:40.181Z,989.68
2019-02-16T09:29:40.067Z,989.65
2019-02-16T09:30:39.990Z,989.68
2019-02-16T09:31:39.907Z,989.68
2019-02-16T09:32:39.826Z,989.70
2019-02-16T09:33:39.755Z,989.68
2019-02-16T09:34:39.675Z,989.65
2019-02-16T09:35:39.596Z,989.70
2019-02-16T09:36:39.513Z,989.68
2019-02-16T09:37:39.432Z,989.68
2019-02-16T09:38:39.354Z,989.68
2019-02-16T09:39:39.273Z,989.72
2019-02-16T09:40:39.206Z,989.70
2019-02-16T09:41:39.122Z,989.67
2019-02-16T09:42:39.034Z,989.68
2019-02-16T09:43:38.961Z,989.65
2019-02-16T09:44:38.882Z,989.67
2019-02-16T09:45:38.794Z,989.63
2019-02-16T09:46:38.716Z,989.64
2019-02-16T09:47:38.634Z,989.60
2019-02-16T09:48:38.553Z,989.62
2019-02-16T09:49:38.475Z,989.62
2019-02-16T09:50:38.401Z,989.63
2019-02-16T09:51:38.318Z,989.61
2019-02-16T09:52:38.241Z,989.57
2019-02-16T09:53:38.154Z,989.59
2019-02-16T09:54:38.075Z,989.56
2019-02-16T09:55:38.109Z,989.60
2019-02-16T09:56:37.922Z,989.57
2019-02-16T09:57:37.842Z,989.60
2019-02-16T09:58:37.765Z,989.63
2019-02-16T09:59:37.689Z,989.59
2019-02-16T10:00:37.604Z,989.61
2019-02-16T10:01:37.526Z,989.61
2019-02-16T10:02:37.452Z,989.60
2019-02-16T10:03:37.385Z,989.62
2019-02-16T10:04:37.284Z,989.66
2019-02-16T10:05:37.211Z,989.69
2019-02-16T10:06:37.129Z,989.67
2019-02-16T10:07:37.050Z,989.66
2019-02-16T10:08:36.968Z,989.61
2019-02-16T10:09:36.893Z,989.65
2019-02-16T10:10:36.812Z,989.60
2019-02-16T10:11:36.737Z,989.61
2019-02-16T10:12:36.654Z,989.57
2019-02-16T10:13:36.580Z,989.58
2019-02-16T10:14:36.498Z,989.58
2019-02-16T10:15:36.419Z,989.57
2019-02-16T10:16:36.338Z,989.62
2019-02-16T10:17:36.259Z,989.59
2019-02-16T10:18:36.195Z,989.63
2019-02-16T10:19:36.104Z,989.65
2019-02-16T10:20:36.020Z,989.64
2019-02-16T10:21:35.947Z,989.65
2019-02-16T10:22:35.869Z,989.62
2019-02-16T10:23:35.787Z,989.66
2019-02-16T10:24:35.710Z,989.63
2019-02-16T10:25:35.628Z,989.62
2019-02-16T10:26:35.555Z,989.60
2019-02-16T10:27:35.476Z,989.60
2019-02-16T10:28:35.417Z,989.57
2019-02-16T10:29:35.317Z,989.60
2019-02-16T10:30:35.239Z,989.58
2019-02-16T10:31:35.161Z,989.62
2019-02-16T10:32:35.077Z,989.61
2019-02-16T10:33:35.022Z,989.60
2019-02-16T10:34:34.922Z,989.59
2019-02-16T10:35:36.711Z,989.64
2019-02-16T10:36:34.767Z,989.64
2019-02-16T10:37:34.692Z,989.65
2019-02-16T10:38:34.619Z,989.59
2019-02-16T10:39:34.535Z,989.61
2019-02-16T10:40:34.457Z,989.61
2019-02-16T10:41:34.376Z,989.64
2019-02-16T10:42:34.308Z,989.64
2019-02-16T10:43:34.219Z,989.63
2019-02-16T10:44:34.148Z,989.67
2019-02-16T10:45:34.066Z,989.62
2019-02-16T10:46:33.994Z,989.59
2019-02-16T10:47:33.918Z,989.56
2019-02-16T10:48:33.829Z,989.57
2019-02-16T10:49:33.755Z,989.54
2019-02-16T10:50:33.676Z,989.53
2019-02-16T10:51:33.598Z,989.53
2019-02-16T10:52:33.522Z,989.50
2019-02-16T10:53:33.443Z,989.49
2019-02-16T10:54:33.371Z,989.52
2019-02-16T10:55:33.291Z,989.42
2019-02-16T10:56:33.211Z,989.40
2019-02-16T10:57:33.139Z,989.36
2019-02-16T10:58:33.055Z,989.36
2019-02-16T10:59:32.976Z,989.35
2019-02-16T11:00:32.897Z,989.29
2019-02-16T11:01:32.827Z,989.30
2019-02-16T11:02:32.740Z,989.29
2019-02-16T11:03:32.672Z,989.29
2019-02-16T11:04:38.311Z,989.32
2019-02-16T11:05:32.514Z,989.29
2019-02-16T11:06:32.439Z,989.30
2019-02-16T11:07:32.354Z,989.26
2019-02-16T11:08:32.284Z,989.22
2019-02-16T11:09:32.206Z,989.25
2019-02-16T11:10:32.127Z,989.22
2019-02-16T11:11:32.046Z,989.20
2019-02-16T11:12:31.970Z,989.20
2019-02-16T11:13:31.896Z,989.19
2019-02-16T11:14:31.821Z,989.15
2019-02-16T11:15:31.741Z,989.18
2019-02-16T11:16:31.663Z,989.16
2019-02-16T11:17:31.590Z,989.17
2019-02-16T11:18:31.509Z,989.17
2019-02-16T11:19:31.433Z,989.15
2019-02-16T11:20:31.366Z,989.16
2019-02-16T11:21:31.279Z,989.16
2019-02-16T11:22:31.201Z,989.18
2019-02-16T11:23:31.122Z,989.14
2019-02-16T11:24:35.985Z,989.14
2019-02-16T11:25:30.973Z,989.11
2019-02-16T11:26:30.894Z,989.09
2019-02-16T11:27:30.814Z,989.06
2019-02-16T11:28:30.739Z,989.10
2019-02-16T11:29:30.670Z,989.05
2019-02-16T11:30:30.585Z,989.06
2019-02-16T11:31:30.509Z,989.06
2019-02-16T11:32:30.433Z,989.04
2019-02-16T11:33:30.356Z,989.09
2019-02-16T11:34:30.275Z,989.05
2019-02-16T11:35:30.202Z,989.03
2019-02-16T11:36:30.122Z,988.99
2019-02-16T11:37:30.039Z,989.02
2019-02-16T11:38:29.971Z,988.97
2019-02-16T11:39:29.897Z,989.01
2019-02-16T11:40:29.813Z,989.01
2019-02-16T11:41:29.735Z,989.01
2019-02-16T11:42:29.659Z,988.99
2019-02-16T11:43:29.591Z,988.98
2019-02-16T11:44:29.509Z,988.94
2019-02-16T11:45:29.429Z,988.96
2019-02-16T11:46:29.351Z,988.98
2019-02-16T11:47:29.274Z,988.99
2019-02-16T11:48:29.200Z,989.01
2019-02-16T11:49:29.137Z,989.00
2019-02-16T11:50:29.045Z,989.03
2019-02-16T11:51:28.967Z,989.00
2019-02-16T11:52:28.889Z,989.03
2019-02-16T11:53:28.809Z,988.99
2019-02-16T11:54:28.739Z,988.99
2019-02-16T11:55:30.690Z,988.98
2019-02-16T11:56:28.583Z,988.95
2019-02-16T11:57:28.509Z,988.95
2019-02-16T11:58:28.427Z,988.95
2019-02-16T11:59:28.353Z,988.89
2019-02-16T12:00:28.277Z,988.87
2019-02-16T12:01:28.198Z,988.82
2019-02-16T12:02:28.123Z,988.85
2019-02-16T12:03:28.042Z,988.78
2019-02-16T12:04:27.973Z,988.75
2019-02-16T12:05:27.893Z,988.68
2019-02-16T12:06:27.815Z,988.66
2019-02-16T12:07:27.741Z,988.70
2019-02-16T12:08:27.660Z,988.67
2019-02-16T12:09:27.584Z,988.62
2019-02-16T12:10:27.510Z,988.63
2019-02-16T12:11:27.451Z,988.65
2019-02-16T12:12:27.353Z,988.62
2019-02-16T12:13:27.321Z,988.57
2019-02-16T12:14:27.202Z,988.63
2019-02-16T12:15:27.129Z,988.60
2019-02-16T12:16:27.051Z,988.63
2019-02-16T12:17:26.979Z,988.66
2019-02-16T12:18:26.897Z,988.65
2019-02-16T12:19:26.824Z,988.65
2019-02-16T12:20:33.371Z,988.67
2019-02-16T12:21:26.672Z,988.66
2019-02-16T12:22:26.599Z,988.65
2019-02-16T12:23:26.515Z,988.65
2019-02-16T12:24:26.440Z,988.68
2019-02-16T12:25:26.362Z,988.64
2019-02-16T12:26:26.293Z,988.63
2019-02-16T12:27:26.209Z,988.62